Time;durP1;ratioP1;P1;durP2;ratioP2;P2;SDS_P1;SDS_P2;PMS_P1;PMS_P2;Temp;Humidity;BMP_temperature;BMP_pressure;BME280_temperature;BME280_humidity;BME280_pressure;Samples;Min_cycle;Max_cycle;Signal;HPM_P1;HPM_P2
2022/06/29 00:00:38;;;;;;;69.70;27.98;;;;;;;15.30;100.00;98004.22;10543881;27;19943;-62
2022/06/29 00:05:37;;;;;;;;;;;;;;;15.11;100.00;98009.72;10544239;27;20103;-62
2022/06/29 00:10:37;;;;;;;52.27;23.60;;;;;;;15.19;100.00;98012.22;10543249;27;19971;-62
2022/06/29 00:15:37;;;;;;;61.50;26.33;;;;;;;15.28;100.00;98012.06;10543371;27;20067;-61
2022/06/29 00:20:36;;;;;;;58.83;26.83;;;;;;;15.29;100.00;98007.69;10542847;27;20067;-61
2022/06/29 00:25:35;;;;;;;;;;;;;;;15.38;100.00;98003.19;10543692;27;20031;-62
2022/06/29 00:30:33;;;;;;;64.10;26.85;;;;;;;15.38;100.00;98000.56;10542543;27;19951;-61
2022/06/29 00:35:32;;;;;;;;;;;;;;;15.37;100.00;97995.38;10543390;27;20106;-62
2022/06/29 00:40:31;;;;;;;68.90;26.67;;;;;;;15.42;100.00;97998.78;10542997;27;20361;-62
2022/06/29 00:45:30;;;;;;;;;;;;;;;15.49;100.00;97991.69;10543270;27;20031;-62
2022/06/29 00:50:32;;;;;;;58.75;26.23;;;;;;;15.52;100.00;97989.88;10542264;27;19907;-62
2022/06/29 00:55:33;;;;;;;68.65;28.48;;;;;;;15.57;100.00;97982.81;10542294;27;20058;-62
2022/06/29 01:00:32;;;;;;;75.32;27.20;;;;;;;15.57;100.00;97969.72;10542319;28;20073;-62
2022/06/29 01:05:31;;;;;;;80.82;27.40;;;;;;;15.28;100.00;97946.69;10542288;28;20070;-62
2022/06/29 01:10:30;;;;;;;50.53;23.52;;;;;;;15.39;100.00;97962.22;10542385;28;20075;-62
2022/06/29 01:15:29;;;;;;;;;;;;;;;15.15;100.00;97961.72;10542630;28;20038;-61
2022/06/29 01:20:29;;;;;;;42.40;19.60;;;;;;;14.95;100.00;97950.72;10541743;28;20005;-61
2022/06/29 01:25:28;;;;;;;47.60;20.90;;;;;;;14.86;100.00;97945.66;10541758;28;20062;-61
2022/06/29 01:30:26;;;;;;;;;;;;;;;14.62;100.00;97945.94;10542162;28;20405;-61
2022/06/29 01:35:25;;;;;;;39.22;20.40;;;;;;;14.57;100.00;97965.19;10541524;28;19908;-61
2022/06/29 01:40:24;;;;;;;;;;;;;;;14.50;100.00;97953.06;10542003;28;20038;-61
2022/06/29 01:45:23;;;;;;;43.92;22.85;;;;;;;14.58;100.00;97953.84;10546249;27;19954;-62
2022/06/29 01:50:22;;;;;;;;;;;;;;;14.72;100.00;97951.94;10549583;27;20042;-62
2022/06/29 01:55:21;;;;;;;49.25;23.05;;;;;;;14.74;100.00;97955.38;10549260;27;19908;-61
2022/06/29 02:00:20;;;;;;;;;;;;;;;14.81;100.00;97945.72;10549309;27;20493;-61
2022/06/29 02:05:19;;;;;;;46.90;23.10;;;;;;;14.92;100.00;97953.38;10548842;27;20010;-61
2022/06/29 02:10:18;;;;;;;50.90;23.52;;;;;;;15.00;100.00;97955.00;10547972;27;20077;-61
2022/06/29 02:15:17;;;;;;;;;;;;;;;14.95;100.00;97946.38;10548842;27;20084;-61
2022/06/29 02:20:16;;;;;;;41.40;18.95;;;;;;;14.66;100.00;97933.69;10548118;27;19911;-62
2022/06/29 02:25:15;;;;;;;42.75;21.60;;;;;;;14.75;100.00;97932.72;10547936;27;20397;-62
2022/06/29 02:30:14;;;;;;;;;;;;;;;14.86;100.00;97930.81;10547886;27;20035;-61
2022/06/29 02:35:13;;;;;;;45.65;22.33;;;;;;;14.73;100.00;97893.59;10547373;27;19939;-62
2022/06/29 02:40:12;;;;;;;53.80;24.98;;;;;;;14.66;100.00;97865.78;10546559;27;20041;-62
2022/06/29 02:45:11;;;;;;;;;;;;;;;15.01;100.00;97921.88;10547638;27;20083;-62
2022/06/29 02:50:10;;;;;;;45.10;23.48;;;;;;;14.94;100.00;97921.09;10547272;27;19911;-61
2022/06/29 02:55:09;;;;;;;46.55;23.65;;;;;;;14.95;100.00;97914.16;10546704;27;20065;-61
2022/06/29 03:00:08;;;;;;;;;;;;;;;14.94;100.00;97915.00;10547339;27;20019;-61
2022/06/29 03:05:07;;;;;;;51.35;24.73;;;;;;;14.97;100.00;97905.41;10546486;27;20389;-61
2022/06/29 03:10:07;;;;;;;51.65;25.60;;;;;;;14.97;100.00;97907.16;10527449;27;20067;-61
2022/06/29 03:15:06;;;;;;;58.38;24.63;;;;;;;14.68;100.00;97878.81;10545769;27;20059;-62
2022/06/29 03:20:06;;;;;;;47.22;23.85;;;;;;;14.58;100.00;97854.59;10545425;27;20062;-61
2022/06/29 03:25:05;;;;;;;46.10;23.15;;;;;;;14.98;100.00;97903.63;10545589;27;20074;-61
2022/06/29 03:30:05;;;;;;;42.42;21.85;;;;;;;15.05;100.00;97900.03;10544952;27;20062;-62
2022/06/29 03:35:05;;;;;;;41.58;21.88;;;;;;;14.96;100.00;97872.28;10545141;27;20055;-61
2022/06/29 03:40:04;;;;;;;39.08;21.35;;;;;;;15.18;100.00;97896.34;10544786;27;20053;-61
2022/06/29 03:45:04;;;;;;;42.97;22.00;;;;;;;15.07;100.00;97897.41;10544546;27;20063;-61
2022/06/29 03:50:03;;;;;;;46.42;22.10;;;;;;;15.05;100.00;97879.13;10544071;27;20156;-61
2022/06/29 03:55:03;;;;;;;41.08;22.65;;;;;;;15.18;100.00;97883.25;10544184;27;20085;-61
2022/06/29 04:00:04;;;;;;;42.30;22.25;;;;;;;15.27;100.00;97878.75;10544600;27;20058;-61
2022/06/29 04:05:04;;;;;;;45.50;22.90;;;;;;;15.38;100.00;97868.97;10544033;27;20541;-61
2022/06/29 04:10:04;;;;;;;38.88;20.90;;;;;;;15.40;100.00;97867.19;10543296;27;20073;-61
2022/06/29 04:15:04;;;;;;;44.20;23.40;;;;;;;15.37;100.00;97864.63;10543643;27;20074;-61
2022/06/29 04:20:04;;;;;;;38.92;21.42;;;;;;;15.20;100.00;97863.19;10543183;27;20057;-61
2022/06/29 04:25:05;;;;;;;41.35;21.88;;;;;;;15.27;100.00;97876.13;10542673;27;20497;-61
2022/06/29 04:30:04;;;;;;;36.60;18.50;;;;;;;15.30;100.00;97857.78;10542890;27;20054;-61
2022/06/29 04:35:03;;;;;;;32.45;18.13;;;;;;;15.17;100.00;97858.00;10539751;27;20105;-61
2022/06/29 04:40:03;;;;;;;34.17;19.15;;;;;;;15.16;100.00;97877.19;10522354;27;20467;-61
2022/06/29 04:45:02;;;;;;;34.15;19.08;;;;;;;15.10;100.00;97868.59;10454311;27;20142;-61
2022/06/29 04:50:01;;;;;;;27.38;18.02;;;;;;;15.39;100.00;97862.84;10415606;28;20067;-61
2022/06/29 04:55:00;;;;;;;;;;;;;;;15.64;100.00;97868.47;10410271;28;20032;-61
2022/06/29 04:59:59;;;;;;;31.37;18.73;;;;;;;15.90;100.00;97862.72;10416014;28;19944;-61
2022/06/29 05:04:58;;;;;;;;;;;;;;;15.82;100.00;97864.66;10416442;28;20115;-61
2022/06/29 05:09:56;;;;;;;28.47;17.30;;;;;;;15.48;100.00;97873.13;10429852;28;19913;-60
2022/06/29 05:14:55;;;;;;;;;;;;;;;15.52;100.00;97882.63;10413592;28;20051;-61
2022/06/29 05:19:54;;;;;;;29.10;16.77;;;;;;;15.63;100.00;97870.22;10453066;28;20010;-61
2022/06/29 05:24:53;;;;;;;;;;;;;;;15.92;100.00;97868.81;10436329;28;20186;-60
2022/06/29 05:29:52;;;;;;;24.50;16.57;;;;;;;15.96;100.00;97867.84;10453670;28;19945;-60
2022/06/29 05:34:51;;;;;;;21.55;16.38;;;;;;;15.96;100.00;97859.16;10444246;28;20032;-60
2022/06/29 05:39:50;;;;;;;24.60;17.23;;;;;;;15.97;100.00;97863.47;10422662;28;20051;-60
2022/06/29 05:44:49;;;;;;;22.67;16.48;;;;;;;16.19;100.00;97861.28;10422943;28;20041;-60
2022/06/29 05:49:48;;;;;;;20.70;14.95;;;;;;;16.13;100.00;97861.41;10450829;28;20059;-60
2022/06/29 05:54:47;;;;;;;20.70;14.52;;;;;;;15.93;100.00;97862.69;10464679;28;20036;-60
2022/06/29 05:59:47;;;;;;;17.90;13.25;;;;;;;15.95;100.00;97860.03;10464000;28;20024;-60
2022/06/29 06:04:46;;;;;;;20.70;15.88;;;;;;;16.32;100.00;97865.31;10463957;28;20074;-60
2022/06/29 06:09:45;;;;;;;20.48;14.45;;;;;;;16.83;100.00;97869.44;10444506;28;20040;-60
2022/06/29 06:14:44;;;;;;;24.65;15.35;;;;;;;16.93;100.00;97861.31;10463088;28;20042;-60
2022/06/29 06:19:43;;;;;;;20.48;15.43;;;;;;;16.86;100.00;97866.72;10448813;28;20067;-60
2022/06/29 06:24:42;;;;;;;20.02;14.18;;;;;;;17.21;100.00;97860.59;10459111;28;20458;-60
2022/06/29 06:29:41;;;;;;;18.08;13.50;;;;;;;17.62;99.69;97871.75;10429834;28;20119;-60
2022/06/29 06:34:40;;;;;;;17.92;14.13;;;;;;;17.72;97.38;97873.22;10443177;28;20064;-60
2022/06/29 06:39:39;;;;;;;18.52;14.52;;;;;;;17.64;97.45;97854.22;10445018;28;20052;-60
2022/06/29 06:44:38;;;;;;;17.90;14.02;;;;;;;17.82;96.15;97873.00;10462594;28;20063;-60
2022/06/29 06:49:37;;;;;;;21.00;15.18;;;;;;;17.84;97.12;97856.28;10442658;28;20048;-60
2022/06/29 06:54:36;;;;;;;21.98;15.35;;;;;;;17.89;97.16;97851.75;10462834;28;20051;-60
2022/06/29 06:59:35;;;;;;;17.92;14.27;;;;;;;18.05;97.13;97851.31;10462035;28;20028;-61
2022/06/29 07:04:34;;;;;;;17.77;13.15;;;;;;;17.95;96.30;97848.97;10421770;28;20515;-60
2022/06/29 07:09:33;;;;;;;17.83;13.57;;;;;;;17.86;96.75;97864.13;10453089;28;20038;-61
2022/06/29 07:14:32;;;;;;;15.13;11.90;;;;;;;17.82;96.93;97849.38;10437142;28;20127;-62
2022/06/29 07:19:31;;;;;;;14.85;12.00;;;;;;;17.87;97.81;97842.22;10446142;28;20071;-61
2022/06/29 07:24:30;;;;;;;15.05;12.23;;;;;;;18.14;98.42;97851.91;10459531;28;20078;-61
2022/06/29 07:29:29;;;;;;;14.65;11.18;;;;;;;18.16;96.11;97846.63;10460165;28;20062;-61
2022/06/29 07:34:28;;;;;;;15.63;11.32;;;;;;;18.32;96.16;97836.50;10417032;28;20028;-61
2022/06/29 07:39:30;;;;;;;13.55;10.43;;;;;;;18.53;94.41;97851.59;10447203;28;20095;-61
2022/06/29 07:44:29;;;;;;;12.90;9.95;;;;;;;18.79;94.42;97842.06;10451799;28;20655;-61
2022/06/29 07:49:28;;;;;;;12.90;11.13;;;;;;;19.03;93.80;97843.88;10435564;28;20050;-62
2022/06/29 07:54:27;;;;;;;10.82;9.65;;;;;;;19.39;93.77;97840.00;10460847;28;20060;-61
2022/06/29 07:59:26;;;;;;;16.92;10.75;;;;;;;19.71;94.75;97828.38;10458308;28;20513;-61
2022/06/29 08:04:25;;;;;;;13.10;10.10;;;;;;;20.05;92.45;97824.50;10456578;28;20574;-61
2022/06/29 08:09:24;;;;;;;12.85;9.70;;;;;;;20.30;86.97;97821.75;10455381;28;20063;-61
2022/06/29 08:14:23;;;;;;;9.95;8.95;;;;;;;20.58;87.58;97826.81;10439857;28;20048;-62
2022/06/29 08:19:22;;;;;;;10.70;8.27;;;;;;;20.84;85.94;97823.09;10457880;28;20055;-61
2022/06/29 08:24:21;;;;;;;9.57;7.95;;;;;;;21.26;86.55;97811.69;10417989;28;20511;-61
2022/06/29 08:29:20;;;;;;;10.25;8.05;;;;;;;21.55;82.98;97815.72;10445528;28;20486;-61
2022/06/29 08:34:23;;;;;;;9.90;7.55;;;;;;;21.81;82.14;97808.41;10458194;28;20055;-62
2022/06/29 08:39:22;;;;;;;8.32;7.15;;;;;;;22.11;76.62;97819.38;10458050;28;20044;-62
2022/06/29 08:44:22;;;;;;;9.05;6.10;;;;;;;22.38;73.97;97819.84;10455825;28;20032;-62
2022/06/29 08:49:21;;;;;;;11.90;6.35;;;;;;;22.62;71.88;97816.94;10457489;28;20450;-62
2022/06/29 08:54:21;;;;;;;6.88;5.60;;;;;;;22.83;70.58;97816.88;10455169;28;20063;-62
2022/06/29 08:59:22;;;;;;;10.38;6.35;;;;;;;23.19;67.30;97815.00;10456553;28;20063;-62
2022/06/29 09:04:21;;;;;;;7.65;5.32;;;;;;;23.52;69.22;97811.59;10457630;28;20048;-61
2022/06/29 09:09:21;;;;;;;7.15;5.10;;;;;;;23.76;67.52;97803.28;10458718;28;20040;-61
2022/06/29 09:14:20;;;;;;;7.53;5.20;;;;;;;24.04;67.89;97802.63;10458040;28;20063;-61
2022/06/29 09:19:21;;;;;;;6.95;5.32;;;;;;;24.21;66.43;97799.91;10456773;28;20048;-61
2022/06/29 09:24:28;;;;;;;7.30;4.82;;;;;;;24.51;62.41;97803.59;10457013;28;20052;-62
2022/06/29 09:29:29;;;;;;;5.00;4.50;;;;;;;24.79;61.10;97801.06;10458431;28;20055;-61
2022/06/29 09:34:29;;;;;;;6.68;4.32;;;;;;;24.99;57.48;97805.25;10457823;28;20094;-62
2022/06/29 09:39:34;;;;;;;4.97;3.75;;;;;;;25.10;52.64;97804.59;10457159;28;20048;-61
2022/06/29 09:44:33;;;;;;;4.60;3.20;;;;;;;25.33;51.02;97801.44;10456884;28;20155;-61
2022/06/29 09:49:34;;;;;;;5.05;3.92;;;;;;;25.47;51.86;97799.75;10456299;28;20118;-62
2022/06/29 09:54:39;;;;;;;3.97;3.58;;;;;;;25.70;52.09;97793.91;10456395;28;20044;-61
2022/06/29 10:05:18;;;;;;;4.93;3.80;;;;;;;25.90;52.97;97791.81;10460853;28;20060;-62
2022/06/29 10:10:23;;;;;;;3.88;3.53;;;;;;;26.08;51.86;97788.00;10465089;28;20066;-61
2022/06/29 10:15:44;;;;;;;3.90;3.60;;;;;;;26.11;53.04;97784.28;10464910;28;20055;-62
2022/06/29 10:20:48;;;;;;;4.22;3.85;;;;;;;26.09;52.59;97783.50;10464082;28;20052;-61
2022/06/29 10:25:47;;;;;;;6.65;4.20;;;;;;;26.36;51.85;97776.47;10463443;28;20066;-62
2022/06/29 10:30:46;;;;;;;5.32;4.05;;;;;;;26.53;50.72;97762.06;10462234;28;20040;-61
2022/06/29 10:36:08;;;;;;;6.95;4.55;;;;;;;26.96;51.32;97764.56;10462564;28;20074;-62
2022/06/29 10:41:10;;;;;;;4.47;3.97;;;;;;;27.15;49.22;97771.31;10461325;28;20419;-61
2022/06/29 10:46:09;;;;;;;4.53;4.13;;;;;;;27.13;49.14;97760.75;10441407;28;20103;-62
2022/06/29 10:51:11;;;;;;;5.35;4.22;;;;;;;27.09;49.52;97747.72;10460651;28;20130;-61
2022/06/29 10:56:10;;;;;;;4.90;3.65;;;;;;;27.22;50.18;97743.28;10449646;28;20078;-61
2022/06/29 11:01:09;;;;;;;5.20;3.80;;;;;;;27.45;48.17;97744.34;10418654;28;20056;-61
2022/06/29 11:16:52;;;;;;;4.03;3.45;;;;;;;27.20;45.22;97723.88;10460306;28;20067;-62
2022/06/29 11:22:15;;;;;;;4.10;3.70;;;;;;;27.55;47.45;97728.59;10461142;28;20455;-61
2022/06/29 11:27:36;;;;;;;5.55;3.85;;;;;;;27.90;46.18;97722.56;10460645;28;20467;-61
2022/06/29 11:32:46;;;;;;;6.60;4.13;;;;;;;27.93;46.00;97727.66;10460585;28;20062;-61
2022/06/29 11:38:02;;;;;;;7.15;3.50;;;;;;;28.33;45.98;97716.78;10458343;28;20438;-61
2022/06/29 11:43:07;;;;;;;7.30;3.85;;;;;;;28.47;44.26;97719.25;10461327;28;20070;-62
2022/06/29 11:48:26;;;;;;;4.22;3.30;;;;;;;28.25;42.92;97714.69;10460030;28;20849;-62
2022/06/29 11:53:54;;;;;;;3.78;3.03;;;;;;;28.35;43.75;97696.16;10459918;28;20493;-62
2022/06/29 11:58:56;;;;;;;3.47;3.17;;;;;;;28.17;43.78;97703.72;10458395;28;20051;-62
2022/06/29 12:03:57;;;;;;;5.65;3.60;;;;;;;28.17;42.61;97696.56;10460690;28;20072;-61
2022/06/29 12:08:56;;;;;;;4.65;3.55;;;;;;;28.51;42.08;97702.06;10460350;28;20082;-62
2022/06/29 12:13:56;;;;;;;5.40;3.63;;;;;;;28.48;41.29;97696.97;10459806;28;20068;-61
2022/06/29 12:18:55;;;;;;;5.07;3.40;;;;;;;28.48;41.05;97691.63;10458343;28;20063;-62
2022/06/29 12:23:54;;;;;;;8.38;4.18;;;;;;;28.63;42.21;97695.78;10458625;28;20107;-62
2022/06/29 12:28:53;;;;;;;4.28;3.63;;;;;;;28.77;40.62;97691.25;10457026;28;20048;-61
2022/06/29 12:33:52;;;;;;;4.28;3.50;;;;;;;28.53;42.08;97691.28;10458731;28;20082;-61
2022/06/29 12:38:51;;;;;;;4.35;3.55;;;;;;;28.71;41.64;97681.03;10455017;28;20311;-62
2022/06/29 12:43:50;;;;;;;4.50;3.78;;;;;;;28.82;41.98;97676.56;10455112;28;20494;-62
2022/06/29 12:48:49;;;;;;;5.10;3.65;;;;;;;28.71;42.65;97667.69;10456832;28;20027;-62
2022/06/29 12:53:48;;;;;;;6.28;3.80;;;;;;;28.57;41.90;97669.56;10456751;28;20046;-62
2022/06/29 12:58:47;;;;;;;4.68;3.38;;;;;;;28.90;40.55;97675.13;10456510;28;20066;-61
2022/06/29 13:03:46;;;;;;;3.95;3.47;;;;;;;29.09;39.30;97673.59;10457137;28;20127;-62
2022/06/29 13:08:45;;;;;;;4.32;3.60;;;;;;;29.18;40.33;97663.16;10457614;28;20071;-61
2022/06/29 13:13:44;;;;;;;6.72;3.65;;;;;;;28.97;40.67;97671.88;10458203;28;20119;-62
2022/06/29 13:18:43;;;;;;;6.63;3.30;;;;;;;28.97;39.88;97661.19;10457962;28;20023;-62
2022/06/29 13:23:42;;;;;;;3.88;3.47;;;;;;;29.13;39.13;97658.16;10457773;28;20040;-62
2022/06/29 13:28:43;;;;;;;4.00;3.60;;;;;;;29.00;38.16;97654.75;10457540;28;20020;-62
2022/06/29 13:33:42;;;;;;;3.85;3.45;;;;;;;29.05;38.37;97658.78;10457520;28;20051;-62
2022/06/29 13:38:43;;;;;;;3.72;3.35;;;;;;;28.96;38.24;97647.94;10457568;28;20048;-62
2022/06/29 13:43:42;;;;;;;4.03;3.25;;;;;;;29.03;38.24;97652.69;10464537;28;20504;-62
2022/06/29 13:48:41;;;;;;;4.57;3.30;;;;;;;29.11;39.42;97643.22;10465683;28;20063;-62
2022/06/29 13:53:40;;;;;;;6.10;3.60;;;;;;;28.91;38.71;97645.63;10465691;28;20056;-62
2022/06/29 13:58:39;;;;;;;4.68;3.65;;;;;;;28.83;40.16;97629.38;10465048;28;20032;-62
2022/06/29 14:03:38;;;;;;;7.95;3.92;;;;;;;29.03;40.28;97623.31;10464000;28;20039;-62
2022/06/29 14:08:37;;;;;;;5.43;3.78;;;;;;;29.31;39.85;97615.81;10463891;28;20155;-62
2022/06/29 14:13:36;;;;;;;7.63;3.90;;;;;;;29.33;39.85;97611.19;10465318;28;20115;-62
2022/06/29 14:18:35;;;;;;;4.80;3.67;;;;;;;29.44;38.40;97607.69;10465081;28;20028;-62
2022/06/29 14:23:34;;;;;;;5.32;3.97;;;;;;;29.30;39.85;97608.78;10464878;28;20024;-62
2022/06/29 14:28:33;;;;;;;7.50;4.43;;;;;;;29.35;40.12;97601.25;10464393;28;20051;-62
2022/06/29 14:33:32;;;;;;;6.10;3.83;;;;;;;29.22;40.01;97604.00;10444063;28;20818;-62
2022/06/29 14:38:31;;;;;;;5.65;4.10;;;;;;;29.31;39.86;97591.75;10460860;28;20063;-62
2022/06/29 14:43:31;;;;;;;4.35;3.58;;;;;;;29.55;38.10;97586.25;10462006;28;20078;-62
2022/06/29 14:48:30;;;;;;;4.95;3.67;;;;;;;29.35;38.65;97581.69;10462591;28;20056;-62
2022/06/29 14:53:29;;;;;;;7.18;3.35;;;;;;;29.31;38.02;97570.38;10463246;28;20032;-62
2022/06/29 14:58:28;;;;;;;7.40;3.60;;;;;;;29.34;38.15;97566.59;10463407;28;20081;-62
2022/06/29 15:03:28;;;;;;;6.40;3.75;;;;;;;29.18;38.86;97572.28;10465288;28;20036;-62
2022/06/29 15:08:27;;;;;;;6.47;3.60;;;;;;;29.13;37.96;97569.97;10455400;28;20056;-62
2022/06/29 15:13:26;;;;;;;4.70;3.60;;;;;;;28.98;38.76;97565.88;10421328;28;20068;-62
2022/06/29 15:18:25;;;;;;;7.03;4.15;;;;;;;28.94;39.06;97565.25;10420712;28;20017;-62
2022/06/29 15:23:24;;;;;;;6.15;3.80;;;;;;;28.88;39.68;97565.75;10421061;28;20554;-61
2022/06/29 15:28:23;;;;;;;4.07;3.65;;;;;;;28.92;39.26;97555.66;10421293;28;20376;-61
2022/06/29 15:38:49;;;;;;;4.22;3.50;;;;;;;28.85;40.22;97550.81;10419205;28;20060;-62
2022/06/29 15:43:48;;;;;;;4.68;3.60;;;;;;;28.90;39.11;97550.47;10421271;28;20419;-62
2022/06/29 15:48:47;;;;;;;10.23;4.30;;;;;;;28.96;39.74;97547.28;10420647;28;20453;-61
2022/06/29 15:59:03;;;;;;;6.28;3.65;;;;;;;28.52;40.54;97546.25;10419466;28;20060;-62
2022/06/29 16:04:02;;;;;;;6.82;3.95;;;;;;;28.64;40.17;97542.66;10415907;28;20115;-62
2022/06/29 16:09:01;;;;;;;5.40;3.67;;;;;;;28.33;40.51;97551.31;10413381;28;20075;-62
2022/06/29 16:14:00;;;;;;;4.93;3.60;;;;;;;28.17;41.88;97549.84;10416383;28;20036;-62
2022/06/29 16:18:59;;;;;;;4.35;3.70;;;;;;;28.04;42.25;97551.69;10416381;28;20031;-62
2022/06/29 16:23:59;;;;;;;4.93;3.53;;;;;;;28.08;42.43;97557.66;10415805;28;20027;-62
2022/06/29 16:28:58;;;;;;;11.45;3.97;;;;;;;27.86;42.49;97563.72;10414583;28;20047;-62
2022/06/29 16:33:57;;;;;;;5.25;3.95;;;;;;;27.99;42.63;97559.19;10416398;28;20056;-62
2022/06/29 16:38:56;;;;;;;4.20;3.53;;;;;;;27.98;42.70;97552.97;10413888;28;20052;-61
2022/06/29 16:43:55;;;;;;;5.70;4.05;;;;;;;28.02;43.10;97550.94;10415616;28;20025;-62
2022/06/29 16:48:54;;;;;;;5.40;4.32;;;;;;;27.86;42.97;97545.91;10415569;28;20020;-62
2022/06/29 16:53:53;;;;;;;5.22;4.05;;;;;;;27.97;43.04;97537.13;10414516;28;20067;-62
2022/06/29 16:58:52;;;;;;;6.65;4.18;;;;;;;27.96;43.19;97549.59;10415051;28;20056;-62
2022/06/29 17:03:51;;;;;;;5.30;3.90;;;;;;;27.80;43.69;97536.56;10415628;28;20029;-61
2022/06/29 17:08:51;;;;;;;8.05;4.50;;;;;;;27.72;45.80;97506.09;10448383;28;20491;-62
2022/06/29 17:13:50;;;;;;;7.15;4.63;;;;;;;28.01;46.30;97538.59;10458024;28;20079;-62
2022/06/29 17:18:49;;;;;;;7.35;4.63;;;;;;;27.86;46.93;97537.06;10464802;28;20038;-61
2022/06/29 17:23:48;;;;;;;6.13;4.70;;;;;;;27.62;47.70;97537.94;10464454;28;20383;-62
2022/06/29 17:28:47;;;;;;;7.18;4.90;;;;;;;27.23;48.47;97526.50;10464520;28;20067;-62
2022/06/29 17:33:46;;;;;;;8.27;5.03;;;;;;;26.93;49.07;97524.22;10463652;28;20142;-61
2022/06/29 17:38:45;;;;;;;9.18;5.47;;;;;;;26.71;50.32;97524.88;10463612;28;20028;-61
2022/06/29 17:43:44;;;;;;;7.30;5.45;;;;;;;26.41;51.70;97523.38;10463819;28;20070;-62
2022/06/29 17:48:43;;;;;;;7.25;5.30;;;;;;;26.07;53.09;97520.38;10463102;28;20055;-61
2022/06/29 17:53:42;;;;;;;12.68;6.88;;;;;;;25.72;55.43;97520.91;10463417;28;20060;-62
2022/06/29 17:58:41;;;;;;;11.30;5.95;;;;;;;25.43;57.37;97521.94;10464600;28;20043;-62
2022/06/29 18:03:40;;;;;;;9.80;7.00;;;;;;;25.16;59.16;97517.47;10466805;28;20040;-62
2022/06/29 18:08:40;;;;;;;11.30;7.50;;;;;;;24.86;60.27;97521.09;10465922;28;20161;-62
2022/06/29 18:13:39;;;;;;;13.55;7.93;;;;;;;24.58;61.41;97523.75;10467310;28;20082;-61
2022/06/29 18:18:39;;;;;;;12.63;7.10;;;;;;;24.29;63.20;97523.72;10466565;28;20039;-61
2022/06/29 18:23:38;;;;;;;13.38;7.30;;;;;;;23.88;64.55;97512.88;10465870;28;20067;-61
2022/06/29 18:28:37;;;;;;;13.00;7.22;;;;;;;23.72;65.97;97536.78;10465906;28;20157;-61
2022/06/29 18:33:36;;;;;;;10.98;7.90;;;;;;;23.49;66.28;97528.38;10466174;28;20056;-61
2022/06/29 18:38:35;;;;;;;14.13;7.05;;;;;;;23.37;67.22;97529.88;10466045;28;20051;-61
2022/06/29 18:43:34;;;;;;;7.93;5.70;;;;;;;23.11;67.59;97530.47;10465424;28;20043;-61
2022/06/29 18:48:33;;;;;;;7.10;5.75;;;;;;;22.91;67.79;97540.34;10466462;28;20042;-61
2022/06/29 18:53:32;;;;;;;9.65;6.45;;;;;;;22.73;67.93;97544.81;10466425;28;20036;-60
2022/06/29 18:58:31;;;;;;;9.75;6.78;;;;;;;22.50;69.61;97539.88;10466580;28;20059;-62
2022/06/29 19:03:30;;;;;;;11.82;7.50;;;;;;;22.35;72.88;97560.91;10462112;28;20031;-62
2022/06/29 19:08:31;;;;;;;10.02;7.35;;;;;;;22.10;75.07;97579.78;10460321;28;20059;-61
2022/06/29 19:13:30;;;;;;;10.40;7.80;;;;;;;21.82;77.16;97577.66;10460204;28;20060;-62
2022/06/29 19:18:29;;;;;;;12.00;7.65;;;;;;;21.58;78.72;97579.72;10460462;28;20116;-61
2022/06/29 19:23:28;;;;;;;12.90;7.60;;;;;;;21.30;78.76;97567.81;10459497;28;20039;-62
2022/06/29 19:28:27;;;;;;;10.73;7.10;;;;;;;21.26;79.03;97578.59;10459911;28;20031;-62
2022/06/29 19:33:26;;;;;;;11.15;7.53;;;;;;;21.20;79.09;97592.06;10459890;28;20048;-61
2022/06/29 19:38:25;;;;;;;13.07;7.95;;;;;;;21.04;79.25;97570.81;10458300;28;20059;-62
2022/06/29 19:43:24;;;;;;;14.77;7.45;;;;;;;21.01;79.48;97579.72;10458797;28;20046;-62
2022/06/29 19:48:22;;;;;;;12.85;7.90;;;;;;;20.93;79.53;97584.47;10459314;28;20111;-62
2022/06/29 19:53:21;;;;;;;12.52;7.85;;;;;;;20.83;79.76;97580.53;10458725;28;20032;-62
2022/06/29 19:58:20;;;;;;;13.45;8.25;;;;;;;20.72;80.03;97573.09;10459071;28;20066;-62
2022/06/29 20:03:19;;;;;;;13.15;8.15;;;;;;;20.66;81.28;97587.44;10458135;28;20032;-61
2022/06/29 20:08:18;;;;;;;11.07;7.80;;;;;;;20.41;82.53;97589.44;10458004;28;20502;-62
2022/06/29 20:13:17;;;;;;;9.95;7.18;;;;;;;20.35;81.89;97587.88;10457591;28;20036;-62
2022/06/29 20:18:17;;;;;;;10.77;7.72;;;;;;;20.34;81.43;97582.69;10457524;28;20064;-62
2022/06/29 20:23:16;;;;;;;9.32;7.05;;;;;;;20.28;81.43;97587.28;10458051;28;20079;-62
2022/06/29 20:28:15;;;;;;;9.55;7.63;;;;;;;20.16;82.29;97597.47;10457604;28;20023;-62
2022/06/29 20:33:14;;;;;;;13.32;7.82;;;;;;;19.92;84.71;97602.00;10457344;28;20459;-62
2022/06/29 20:38:13;;;;;;;17.15;8.77;;;;;;;19.82;85.75;97596.25;10457858;28;20478;-62
2022/06/29 20:45:20;;;;;;;11.40;8.25;;;;;;;19.81;85.76;97602.44;10456807;28;20489;-62
2022/06/29 20:48:31;;;;;;;17.17;10.02;;;;;;;19.86;85.23;97605.72;10456379;28;20070;-62
2022/06/29 20:53:33;;;;;;;15.52;9.98;;;;;;;19.85;85.16;97619.81;10456735;28;20031;-62
2022/06/29 20:58:32;;;;;;;13.27;9.55;;;;;;;19.64;85.67;97603.13;10457572;28;20063;-62
2022/06/29 21:03:32;;;;;;;14.55;8.82;;;;;;;19.71;86.29;97615.13;10456145;28;20066;-61
2022/06/29 21:08:31;;;;;;;22.63;10.27;;;;;;;19.61;86.82;97606.72;10456114;28;20086;-61
2022/06/29 21:13:31;;;;;;;11.68;8.85;;;;;;;19.36;88.95;97606.78;10456634;28;20062;-62
2022/06/29 21:18:30;;;;;;;16.23;8.45;;;;;;;19.27;89.93;97612.41;10456360;28;20102;-62
2022/06/29 21:23:29;;;;;;;13.57;9.07;;;;;;;19.21;90.01;97613.50;10455929;28;20039;-61
2022/06/29 21:28:28;;;;;;;12.23;8.82;;;;;;;19.17;89.08;97616.31;10456599;28;20043;-62
2022/06/29 21:33:27;;;;;;;11.30;8.85;;;;;;;19.01;90.23;97627.41;10455532;28;20062;-62
2022/06/29 21:38:26;;;;;;;18.70;10.35;;;;;;;18.92;91.41;97630.38;10456068;28;20122;-62
2022/06/29 21:43:25;;;;;;;15.98;9.82;;;;;;;18.66;93.44;97619.91;10455970;28;20135;-62
2022/06/29 21:53:44;;;;;;;12.85;8.80;;;;;;;18.58;92.81;97628.94;10455569;28;20059;-61
2022/06/29 21:58:43;;;;;;;12.57;8.63;;;;;;;18.58;92.52;97622.81;10456003;28;20098;-61
2022/06/29 22:03:42;;;;;;;17.67;9.35;;;;;;;18.53;92.54;97630.00;10460897;28;20075;-61
2022/06/29 22:08:41;;;;;;;12.90;9.18;;;;;;;18.43;92.65;97624.19;10462321;28;20062;-62
2022/06/29 22:13:40;;;;;;;13.90;9.63;;;;;;;18.36;92.95;97634.09;10463031;28;20034;-61
2022/06/29 22:18:40;;;;;;;14.98;9.43;;;;;;;18.32;92.84;97634.25;10462433;28;20060;-61
2022/06/29 22:23:39;;;;;;;12.73;9.30;;;;;;;18.22;92.99;97619.69;10460295;28;20533;-62
2022/06/29 22:28:38;;;;;;;13.70;8.82;;;;;;;18.11;93.77;97628.78;10461190;28;20071;-61
2022/06/29 22:33:37;;;;;;;12.27;8.98;;;;;;;18.07;93.92;97629.78;10461394;28;20055;-62
2022/06/29 22:38:36;;;;;;;13.27;9.20;;;;;;;17.99;93.82;97629.19;10461721;28;20026;-61
2022/06/29 22:43:35;;;;;;;13.98;8.95;;;;;;;17.90;93.94;97624.25;10461896;28;20020;-62
2022/06/29 22:48:34;;;;;;;13.98;9.85;;;;;;;17.77;94.47;97624.63;10461103;28;20026;-61
2022/06/29 22:53:33;;;;;;;12.40;9.38;;;;;;;17.73;94.27;97627.34;10460982;28;20483;-62
2022/06/29 22:58:32;;;;;;;16.35;10.43;;;;;;;17.62;95.17;97625.09;10462339;28;20487;-62
2022/06/29 23:03:31;;;;;;;13.00;10.35;;;;;;;17.58;95.24;97607.72;10464241;28;20064;-61
2022/06/29 23:08:30;;;;;;;15.15;10.05;;;;;;;17.40;95.95;97605.66;10463925;28;20044;-62
2022/06/29 23:13:29;;;;;;;14.30;9.98;;;;;;;17.40;96.50;97618.78;10463701;28;20037;-62
2022/06/29 23:18:29;;;;;;;12.23;10.18;;;;;;;17.30;97.34;97608.56;10463546;28;20058;-62
2022/06/29 23:23:28;;;;;;;16.33;10.88;;;;;;;17.11;97.09;97584.66;10463227;28;20083;-62
2022/06/29 23:28:27;;;;;;;18.58;10.57;;;;;;;17.26;97.23;97600.84;10462581;28;20458;-62
2022/06/29 23:33:28;;;;;;;;;;;;;;;17.26;97.47;97611.31;10462823;28;20123;-62